Time;durP1;ratioP1;P1;durP2;ratioP2;P2;SDS_P1;SDS_P2;PMS_P1;PMS_P2;Temp;Humidity;BMP_temperature;BMP_pressure;BME280_temperature;BME280_humidity;BME280_pressure;Samples;Min_cycle;Max_cycle;Signal;HPM_P1;HPM_P2
2021/09/07 00:01:22;;;;;;;12.18;8.68;;;18.70;86.60;;;;;;4919470;29;20069;-84
2021/09/07 00:03:48;;;;;;;10.57;7.78;;;18.60;86.60;;;;;;4919104;29;20062;-84
2021/09/07 00:06:14;;;;;;;11.00;7.78;;;18.60;86.60;;;;;;4918296;29;20455;-83
2021/09/07 00:08:40;;;;;;;10.70;7.88;;;18.60;86.90;;;;;;4918660;29;20399;-85
2021/09/07 00:11:06;;;;;;;11.45;8.07;;;18.60;86.90;;;;;;4919465;29;20138;-84
2021/09/07 00:13:31;;;;;;;11.55;7.80;;;18.50;87.10;;;;;;4918255;29;20500;-84
2021/09/07 00:15:57;;;;;;;10.82;8.07;;;18.50;86.80;;;;;;4919259;29;20055;-84
2021/09/07 00:18:23;;;;;;;11.63;7.55;;;18.50;86.90;;;;;;4919102;29;20500;-84
2021/09/07 00:20:48;;;;;;;11.93;7.88;;;18.50;87.10;;;;;;4918158;29;20052;-84
2021/09/07 00:23:14;;;;;;;10.73;8.00;;;18.50;87.20;;;;;;4919356;29;20048;-83
2021/09/07 00:25:40;;;;;;;10.25;7.80;;;18.40;87.00;;;;;;4918689;29;20138;-84
2021/09/07 00:28:05;;;;;;;11.05;7.95;;;18.40;86.80;;;;;;4918454;29;20043;-83
2021/09/07 00:30:31;;;;;;;11.50;7.72;;;18.40;86.90;;;;;;4918769;29;20186;-84
2021/09/07 00:32:57;;;;;;;10.45;7.72;;;18.30;86.90;;;;;;4919199;29;20051;-84
2021/09/07 00:35:24;;;;;;;11.45;7.85;;;18.30;87.10;;;;;;4918401;29;20048;-84
2021/09/07 00:37:50;;;;;;;11.63;8.32;;;18.30;86.90;;;;;;4918328;29;20403;-84
2021/09/07 00:40:15;;;;;;;10.38;7.65;;;18.30;86.80;;;;;;4919075;29;20043;-85
2021/09/07 00:42:41;;;;;;;11.30;7.97;;;18.30;86.80;;;;;;4918107;29;20508;-85
2021/09/07 00:45:10;;;;;;;11.77;7.55;;;18.30;86.80;;;;;;4918770;29;20040;-84
2021/09/07 00:47:36;;;;;;;12.38;8.20;;;18.30;86.80;;;;;;4918348;29;20142;-84
2021/09/07 00:50:02;;;;;;;11.48;7.95;;;18.30;86.70;;;;;;4935908;29;20047;-85
2021/09/07 00:52:28;;;;;;;11.57;8.13;;;18.20;86.70;;;;;;4919153;29;20075;-83
2021/09/07 00:54:55;;;;;;;12.07;7.90;;;18.20;86.90;;;;;;4917991;29;20450;-84
2021/09/07 00:57:24;;;;;;;10.27;7.70;;;18.20;87.00;;;;;;4918424;29;20138;-84
2021/09/07 00:59:53;;;;;;;14.18;8.65;;;18.20;86.90;;;;;;4918585;29;20048;-85
2021/09/07 01:02:19;;;;;;;11.65;8.60;;;18.20;86.90;;;;;;4918008;29;20090;-84
2021/09/07 01:04:44;;;;;;;13.05;8.52;;;18.10;86.90;;;;;;4918403;29;20048;-84
2021/09/07 01:07:10;;;;;;;12.00;8.25;;;18.10;87.10;;;;;;4918251;29;20126;-84
2021/09/07 01:09:37;;;;;;;11.00;7.97;;;18.10;87.10;;;;;;4918126;29;20110;-84
2021/09/07 01:12:03;;;;;;;10.43;8.00;;;18.10;86.90;;;;;;4918153;29;20048;-84
2021/09/07 01:14:31;;;;;;;11.80;8.40;;;18.00;87.00;;;;;;4918790;29;20514;-84
2021/09/07 01:16:57;;;;;;;12.63;8.02;;;18.10;87.40;;;;;;4918247;29;20063;-84
2021/09/07 01:19:23;;;;;;;10.93;7.82;;;18.00;87.40;;;;;;4919084;29;20480;-84
2021/09/07 01:21:49;;;;;;;12.73;8.00;;;18.00;87.40;;;;;;4919055;29;20048;-84
2021/09/07 01:24:19;;;;;;;12.93;8.27;;;17.90;87.50;;;;;;4919853;29;20043;-84
2021/09/07 01:26:44;;;;;;;12.70;7.95;;;17.90;87.90;;;;;;4921395;29;20496;-84
2021/09/07 01:29:10;;;;;;;10.85;8.18;;;17.90;87.90;;;;;;4939037;29;20099;-84
2021/09/07 01:31:36;;;;;;;12.55;8.18;;;17.90;87.90;;;;;;4938248;29;20048;-84
2021/09/07 01:34:01;;;;;;;11.15;7.90;;;17.90;87.90;;;;;;4922187;29;20047;-83
2021/09/07 01:36:27;;;;;;;11.48;8.27;;;17.90;87.90;;;;;;4922295;29;20048;-84
2021/09/07 01:38:52;;;;;;;10.77;8.18;;;17.90;88.20;;;;;;4920897;29;20051;-84
2021/09/07 01:41:18;;;;;;;11.48;8.32;;;17.80;88.20;;;;;;4921717;29;20052;-84
2021/09/07 01:43:51;;;;;;;12.52;8.65;;;17.80;88.30;;;;;;4921837;29;20082;-84
2021/09/07 01:46:17;;;;;;;10.43;8.07;;;17.80;88.40;;;;;;4921163;29;20056;-84
2021/09/07 01:48:43;;;;;;;11.90;8.02;;;17.70;88.50;;;;;;4938245;29;20040;-84
2021/09/07 01:51:08;;;;;;;10.82;7.55;;;17.70;88.10;;;;;;4920939;29;20054;-85
2021/09/07 01:53:34;;;;;;;11.93;8.05;;;17.80;88.30;;;;;;4921487;29;20054;-84
2021/09/07 01:56:00;;;;;;;13.68;8.65;;;17.70;87.80;;;;;;4921924;29;20384;-84
2021/09/07 01:58:25;;;;;;;11.32;7.88;;;17.70;88.10;;;;;;4920972;29;20515;-84
2021/09/07 02:00:51;;;;;;;11.85;7.97;;;17.70;88.30;;;;;;4920944;29;20059;-84
2021/09/07 02:03:16;;;;;;;10.80;8.27;;;17.60;88.10;;;;;;4921047;29;20373;-84
2021/09/07 02:05:43;;;;;;;11.30;7.70;;;17.60;88.00;;;;;;4920782;29;20040;-84
2021/09/07 02:08:09;;;;;;;11.20;7.90;;;17.60;88.20;;;;;;4921719;29;20082;-84
2021/09/07 02:10:35;;;;;;;10.77;8.10;;;17.60;88.00;;;;;;4921358;29;20047;-85
2021/09/07 02:13:01;;;;;;;11.88;7.93;;;17.60;88.10;;;;;;4920807;29;20055;-84
2021/09/07 02:15:29;;;;;;;10.90;8.00;;;17.60;88.50;;;;;;4921063;29;20044;-84
2021/09/07 02:17:54;;;;;;;11.60;8.00;;;17.50;88.60;;;;;;4937769;29;20059;-85
2021/09/07 02:20:20;;;;;;;11.65;7.85;;;17.50;88.60;;;;;;4920952;29;20048;-84
2021/09/07 02:22:45;;;;;;;10.10;7.70;;;17.50;88.20;;;;;;4921087;29;20067;-84
2021/09/07 02:25:11;;;;;;;13.65;8.40;;;17.50;88.20;;;;;;4921321;29;20043;-84
2021/09/07 02:27:37;;;;;;;11.30;8.02;;;17.50;88.70;;;;;;4919703;29;20613;-84
2021/09/07 02:30:04;;;;;;;11.20;7.80;;;17.50;88.00;;;;;;4921557;29;20090;-85
2021/09/07 02:32:29;;;;;;;11.20;8.20;;;17.50;88.20;;;;;;4921030;29;20095;-85
2021/09/07 02:34:55;;;;;;;11.10;7.80;;;17.50;88.20;;;;;;4919397;29;20403;-85
2021/09/07 02:37:21;;;;;;;12.27;8.35;;;17.50;87.90;;;;;;4920393;29;20448;-86
2021/09/07 02:39:47;;;;;;;13.30;7.82;;;17.40;88.20;;;;;;4920786;29;20036;-84
2021/09/07 02:42:13;;;;;;;11.05;7.80;;;17.40;88.60;;;;;;4919923;29;20144;-85
2021/09/07 02:44:38;;;;;;;11.23;7.78;;;17.40;88.70;;;;;;4920578;29;20043;-85
2021/09/07 02:47:04;;;;;;;11.10;7.82;;;17.40;88.70;;;;;;4920426;29;20086;-86
2021/09/07 02:49:29;;;;;;;10.77;7.82;;;17.40;88.90;;;;;;4920284;29;20043;-84
2021/09/07 02:51:55;;;;;;;10.60;7.82;;;17.40;89.00;;;;;;4920347;29;20051;-85
2021/09/07 02:54:21;;;;;;;11.32;8.00;;;17.40;89.10;;;;;;4920066;29;20043;-84
2021/09/07 02:56:46;;;;;;;11.07;7.72;;;17.40;89.00;;;;;;4920492;29;20044;-85
2021/09/07 02:59:12;;;;;;;12.23;7.95;;;17.30;89.10;;;;;;4920613;29;20087;-85
2021/09/07 03:01:39;;;;;;;10.77;7.45;;;17.30;89.30;;;;;;4919609;29;20047;-85
2021/09/07 03:04:04;;;;;;;11.95;7.78;;;17.30;89.40;;;;;;4920610;29;20058;-84
2021/09/07 03:06:30;;;;;;;12.00;7.70;;;17.30;89.40;;;;;;4919967;29;20130;-84
2021/09/07 03:08:56;;;;;;;10.98;8.35;;;17.30;89.40;;;;;;4919951;29;20086;-84
2021/09/07 03:11:21;;;;;;;10.98;8.45;;;17.30;89.40;;;;;;4920804;29;20480;-84
2021/09/07 03:13:47;;;;;;;9.95;7.10;;;17.30;89.30;;;;;;4920176;29;20065;-84
2021/09/07 03:16:13;;;;;;;10.50;7.82;;;17.30;89.60;;;;;;4918900;29;20082;-84
2021/09/07 03:18:38;;;;;;;11.05;7.55;;;17.30;89.50;;;;;;4919919;29;20040;-85
2021/09/07 03:21:04;;;;;;;10.80;7.57;;;17.30;89.50;;;;;;4920188;29;20052;-84
2021/09/07 03:23:29;;;;;;;12.52;7.80;;;17.20;89.40;;;;;;4919238;29;20044;-84
2021/09/07 03:25:55;;;;;;;11.05;7.80;;;17.20;89.20;;;;;;4919799;29;20492;-84
2021/09/07 03:28:20;;;;;;;10.98;7.55;;;17.20;89.20;;;;;;4920356;29;20119;-85
2021/09/07 03:30:46;;;;;;;11.15;7.38;;;17.20;88.90;;;;;;4919209;29;20047;-84
2021/09/07 03:33:12;;;;;;;10.55;7.70;;;17.20;89.10;;;;;;4920327;29;20152;-84
2021/09/07 03:35:37;;;;;;;10.30;7.40;;;17.20;89.10;;;;;;4919237;29;20050;-85
2021/09/07 03:38:03;;;;;;;10.18;7.25;;;17.20;88.70;;;;;;4917956;29;20044;-85
2021/09/07 03:40:29;;;;;;;9.95;7.00;;;17.10;88.70;;;;;;4919967;29;20054;-84
2021/09/07 03:42:54;;;;;;;11.63;7.78;;;17.10;89.10;;;;;;4919749;29;20051;-84
2021/09/07 03:45:20;;;;;;;11.27;7.78;;;17.10;88.80;;;;;;4917476;29;20056;-84
2021/09/07 03:47:46;;;;;;;11.60;7.57;;;17.10;89.00;;;;;;4919052;29;20384;-85
2021/09/07 03:50:13;;;;;;;11.95;7.85;;;17.10;89.00;;;;;;4919334;29;20077;-85
2021/09/07 03:52:40;;;;;;;11.80;7.45;;;17.10;89.00;;;;;;4918526;29;20145;-84
2021/09/07 03:55:07;;;;;;;11.45;7.18;;;17.10;89.00;;;;;;4919612;29;20047;-86
2021/09/07 03:57:32;;;;;;;10.85;7.40;;;17.10;88.90;;;;;;4918083;29;20075;-85
2021/09/07 03:59:58;;;;;;;10.77;7.25;;;17.10;88.90;;;;;;4918552;29;20483;-85
2021/09/07 04:02:24;;;;;;;11.13;8.35;;;17.10;89.10;;;;;;4917881;29;20061;-83
2021/09/07 04:04:50;;;;;;;11.02;7.55;;;17.00;89.00;;;;;;4917688;29;20082;-85
2021/09/07 04:07:16;;;;;;;10.80;7.28;;;17.00;88.90;;;;;;4936167;29;20048;-85
2021/09/07 04:09:42;;;;;;;10.55;7.63;;;17.00;88.70;;;;;;4918804;29;20040;-84
2021/09/07 04:12:08;;;;;;;11.15;7.40;;;17.00;89.10;;;;;;4918680;29;20040;-84
2021/09/07 04:14:33;;;;;;;10.45;7.88;;;17.00;89.20;;;;;;4918646;29;20046;-85
2021/09/07 04:16:59;;;;;;;11.98;7.85;;;17.00;89.30;;;;;;4918986;29;20400;-85
2021/09/07 04:19:24;;;;;;;12.50;8.00;;;17.00;88.80;;;;;;4918607;29;20049;-84
2021/09/07 04:21:50;;;;;;;13.20;7.80;;;16.90;89.00;;;;;;4918987;29;20054;-85
2021/09/07 04:24:15;;;;;;;9.77;7.50;;;17.00;89.10;;;;;;4919316;29;20058;-85
2021/09/07 04:26:41;;;;;;;12.82;8.23;;;16.90;89.30;;;;;;4918167;29;20102;-85
2021/09/07 04:29:07;;;;;;;11.85;8.07;;;17.00;89.30;;;;;;4919083;29;20043;-84
2021/09/07 04:31:33;;;;;;;12.27;8.20;;;16.90;89.50;;;;;;4918975;29;20064;-85
2021/09/07 04:34:00;;;;;;;12.32;8.10;;;17.00;89.80;;;;;;4918472;29;20050;-85
2021/09/07 04:36:25;;;;;;;11.73;7.80;;;16.90;89.70;;;;;;4918807;29;20130;-85
2021/09/07 04:38:51;;;;;;;12.27;8.30;;;16.90;89.60;;;;;;4918846;29;20131;-85
2021/09/07 04:41:16;;;;;;;11.93;7.93;;;16.90;89.70;;;;;;4918126;29;20212;-85
2021/09/07 04:43:42;;;;;;;11.85;8.18;;;16.90;89.70;;;;;;4918718;29;20040;-84
2021/09/07 04:46:08;;;;;;;13.35;8.30;;;16.90;89.90;;;;;;4918234;29;20062;-85
2021/09/07 04:48:33;;;;;;;10.75;8.38;;;16.90;90.00;;;;;;4917915;29;20058;-84
2021/09/07 04:50:59;;;;;;;11.45;8.38;;;16.90;89.90;;;;;;4919129;29;20547;-84
2021/09/07 04:53:24;;;;;;;12.88;8.80;;;16.90;89.90;;;;;;4918824;29;20035;-85
2021/09/07 04:55:50;;;;;;;11.07;8.05;;;16.90;89.90;;;;;;4917762;29;20065;-85
2021/09/07 04:58:15;;;;;;;11.65;7.82;;;16.90;89.80;;;;;;4920425;29;20058;-84
2021/09/07 05:00:41;;;;;;;11.43;8.07;;;16.90;89.80;;;;;;4921748;29;20436;-84
2021/09/07 05:03:06;;;;;;;11.93;8.10;;;16.90;89.80;;;;;;4922066;29;20380;-84
2021/09/07 05:05:32;;;;;;;11.27;7.70;;;16.90;89.70;;;;;;4921834;29;20052;-84
2021/09/07 05:07:58;;;;;;;11.35;7.70;;;16.90;89.70;;;;;;4921375;29;20053;-84
2021/09/07 05:10:27;;;;;;;11.30;8.25;;;16.90;89.40;;;;;;4922063;29;20535;-84
2021/09/07 05:12:53;;;;;;;12.75;8.20;;;16.90;89.10;;;;;;4922457;29;20048;-84
2021/09/07 05:15:19;;;;;;;10.40;7.85;;;16.90;89.50;;;;;;4921233;29;20048;-84
2021/09/07 05:17:45;;;;;;;10.68;7.88;;;16.80;89.20;;;;;;4922676;29;20365;-85
2021/09/07 05:20:11;;;;;;;12.52;8.55;;;16.90;89.30;;;;;;4939714;29;20044;-84
2021/09/07 05:22:38;;;;;;;12.70;8.68;;;16.80;89.20;;;;;;4931834;29;20048;-83
2021/09/07 05:25:05;;;;;;;11.20;8.10;;;16.90;89.40;;;;;;4905628;29;20044;-84
2021/09/07 05:27:35;;;;;;;12.05;8.45;;;16.90;89.40;;;;;;4918634;29;20044;-84
2021/09/07 05:30:05;;;;;;;12.40;8.43;;;16.90;89.70;;;;;;4915474;29;20477;-84
2021/09/07 05:32:31;;;;;;;12.32;8.55;;;16.80;89.70;;;;;;4902953;29;20792;-84
2021/09/07 05:34:57;;;;;;;11.18;8.30;;;16.80;89.50;;;;;;4910131;29;20079;-84
2021/09/07 05:37:22;;;;;;;11.75;8.55;;;16.80;89.70;;;;;;4918260;29;20040;-84
2021/09/07 05:39:48;;;;;;;12.35;8.35;;;16.80;89.70;;;;;;4921155;29;20040;-85
2021/09/07 05:42:13;;;;;;;11.50;8.32;;;16.80;89.80;;;;;;4919771;29;20048;-85
2021/09/07 05:44:39;;;;;;;11.93;8.10;;;16.80;89.80;;;;;;4917949;29;20051;-84
2021/09/07 05:47:05;;;;;;;10.70;7.93;;;16.80;89.70;;;;;;4921690;29;20489;-84
2021/09/07 05:49:31;;;;;;;10.63;7.85;;;16.80;89.90;;;;;;4921716;29;20444;-84
2021/09/07 05:51:57;;;;;;;11.93;7.75;;;16.80;90.10;;;;;;4921302;29;20075;-84
2021/09/07 05:54:23;;;;;;;11.77;8.13;;;16.80;90.00;;;;;;4938250;29;20047;-85
2021/09/07 05:56:49;;;;;;;15.95;9.13;;;16.80;89.90;;;;;;4921731;29;20044;-85
2021/09/07 05:59:16;;;;;;;11.48;8.30;;;16.80;89.90;;;;;;4920921;29;20054;-85
2021/09/07 06:01:42;;;;;;;10.88;8.25;;;16.80;89.90;;;;;;4921496;29;20099;-85
2021/09/07 06:04:08;;;;;;;12.35;8.63;;;16.80;90.00;;;;;;4920605;29;20464;-84
2021/09/07 06:06:33;;;;;;;11.90;8.57;;;16.80;89.90;;;;;;4920913;29;20044;-82
2021/09/07 06:08:59;;;;;;;11.63;8.25;;;16.80;90.10;;;;;;4919430;29;20048;-83
2021/09/07 06:11:24;;;;;;;10.52;8.02;;;16.80;90.00;;;;;;4920399;29;20090;-86
2021/09/07 06:13:50;;;;;;;11.85;8.70;;;16.80;90.10;;;;;;4921230;29;20048;-86
2021/09/07 06:16:16;;;;;;;10.27;7.90;;;16.80;90.10;;;;;;4920100;29;20059;-85
2021/09/07 06:18:41;;;;;;;12.30;8.38;;;16.80;90.00;;;;;;4920017;29;20047;-85
2021/09/07 06:21:07;;;;;;;11.68;8.40;;;16.80;89.80;;;;;;4921620;29;20056;-84
2021/09/07 06:23:33;;;;;;;11.30;8.20;;;16.90;89.90;;;;;;4920074;29;20052;-85
2021/09/07 06:25:59;;;;;;;11.90;8.20;;;16.80;89.90;;;;;;4920006;29;20044;-84
2021/09/07 06:28:26;;;;;;;12.98;9.30;;;16.80;89.80;;;;;;4920773;29;20165;-83
2021/09/07 06:30:52;;;;;;;10.85;8.00;;;16.80;89.80;;;;;;4914590;29;20064;-82
2021/09/07 06:33:19;;;;;;;11.32;8.25;;;16.90;89.60;;;;;;4900684;29;20409;-83
2021/09/07 06:35:45;;;;;;;11.70;8.40;;;16.90;89.60;;;;;;4901981;29;20048;-84
2021/09/07 06:38:10;;;;;;;10.77;8.20;;;16.90;89.40;;;;;;4907340;29;20095;-83
2021/09/07 06:40:36;;;;;;;12.00;8.05;;;16.90;89.40;;;;;;4920078;29;20051;-84
2021/09/07 06:43:03;;;;;;;11.27;8.48;;;16.90;89.50;;;;;;4920961;29;20050;-83
2021/09/07 06:45:29;;;;;;;13.90;9.20;;;16.90;89.50;;;;;;4920454;29;20103;-83
2021/09/07 06:47:54;;;;;;;16.15;10.85;;;17.00;89.40;;;;;;4919184;29;20048;-84
2021/09/07 06:50:20;;;;;;;15.27;10.32;;;17.00;89.70;;;;;;4920601;29;20047;-83
2021/09/07 06:52:46;;;;;;;11.57;8.13;;;16.90;89.50;;;;;;4920068;29;20051;-84
2021/09/07 06:55:11;;;;;;;10.57;7.95;;;16.90;89.30;;;;;;4919888;29;20126;-84
2021/09/07 06:57:37;;;;;;;10.63;7.82;;;16.90;89.10;;;;;;4920207;29;20062;-83
2021/09/07 07:00:04;;;;;;;15.98;12.23;;;16.90;89.20;;;;;;4920167;29;20052;-84
2021/09/07 07:02:31;;;;;;;19.92;13.18;;;17.00;89.70;;;;;;4917729;29;20064;-83
2021/09/07 07:04:58;;;;;;;15.45;11.05;;;17.00;90.20;;;;;;4901648;29;20087;-83
2021/09/07 07:07:24;;;;;;;13.25;10.32;;;17.00;90.20;;;;;;4900680;29;20078;-83
2021/09/07 07:09:51;;;;;;;13.20;9.23;;;17.00;90.20;;;;;;4913622;29;20176;-84
2021/09/07 07:12:16;;;;;;;18.38;12.77;;;17.00;90.10;;;;;;4920297;29;20496;-84
2021/09/07 07:14:42;;;;;;;15.45;12.13;;;17.10;90.50;;;;;;4919220;29;20067;-83
2021/09/07 07:17:07;;;;;;;17.27;11.77;;;17.10;90.40;;;;;;4919816;29;20043;-84
2021/09/07 07:19:33;;;;;;;20.00;13.32;;;17.20;90.30;;;;;;4919332;29;20058;-83
2021/09/07 07:21:59;;;;;;;15.45;10.20;;;17.20;90.50;;;;;;4919583;29;20134;-83
2021/09/07 07:24:24;;;;;;;19.52;14.82;;;17.30;90.30;;;;;;4920303;29;20055;-82
2021/09/07 07:26:50;;;;;;;18.27;13.98;;;17.30;90.40;;;;;;4919550;29;20052;-83
2021/09/07 07:29:16;;;;;;;21.25;14.45;;;17.40;90.50;;;;;;4917875;29;20044;-83
2021/09/07 07:31:42;;;;;;;18.77;13.95;;;17.50;90.60;;;;;;4919304;29;20067;-83
2021/09/07 07:34:09;;;;;;;14.20;10.90;;;17.60;90.30;;;;;;4919766;29;20051;-83
2021/09/07 07:36:34;;;;;;;20.17;13.43;;;17.70;90.00;;;;;;4918943;29;20099;-83
2021/09/07 07:39:00;;;;;;;21.38;14.55;;;17.70;89.70;;;;;;4919721;29;20031;-83
2021/09/07 07:41:26;;;;;;;17.38;11.90;;;17.80;89.80;;;;;;4919655;29;20380;-83
2021/09/07 07:43:52;;;;;;;21.88;13.52;;;17.90;89.60;;;;;;4918572;29;20090;-84
2021/09/07 07:46:18;;;;;;;17.38;13.60;;;18.00;89.60;;;;;;4919142;29;20048;-83
2021/09/07 07:48:43;;;;;;;20.30;14.10;;;18.00;89.40;;;;;;4919272;29;20414;-83
2021/09/07 07:51:11;;;;;;;20.75;13.25;;;18.20;89.30;;;;;;4917382;29;20130;-82
2021/09/07 07:53:37;;;;;;;19.70;13.18;;;18.30;88.70;;;;;;4918491;29;20128;-82
2021/09/07 07:56:04;;;;;;;17.08;12.73;;;18.30;88.40;;;;;;4918517;29;20511;-83
2021/09/07 07:58:30;;;;;;;20.08;13.30;;;18.40;88.30;;;;;;4918089;29;20116;-83
2021/09/07 08:00:56;;;;;;;17.65;13.00;;;18.50;88.00;;;;;;4918848;29;20178;-82
2021/09/07 08:03:22;;;;;;;24.25;13.52;;;18.60;87.90;;;;;;4910091;29;20183;-82
2021/09/07 08:05:47;;;;;;;21.88;14.15;;;18.70;87.40;;;;;;4917928;29;20138;-82
2021/09/07 08:08:13;;;;;;;16.23;12.45;;;18.80;87.50;;;;;;4917582;29;20047;-81
2021/09/07 08:10:39;;;;;;;17.58;12.10;;;18.90;87.20;;;;;;4917705;29;20072;-81
2021/09/07 08:13:05;;;;;;;18.80;13.43;;;19.00;86.30;;;;;;4918631;29;20054;-83
2021/09/07 08:15:31;;;;;;;19.38;12.57;;;19.10;86.10;;;;;;4918720;29;20054;-81
2021/09/07 08:17:57;;;;;;;17.77;12.88;;;19.20;85.80;;;;;;4918098;29;20115;-83
2021/09/07 08:20:23;;;;;;;18.05;12.40;;;19.30;85.90;;;;;;4918934;29;20082;-82
2021/09/07 08:22:48;;;;;;;17.55;11.90;;;19.40;85.70;;;;;;4918836;29;20046;-82
2021/09/07 08:25:14;;;;;;;16.10;11.07;;;19.50;85.60;;;;;;4916634;29;20555;-82
2021/09/07 08:27:39;;;;;;;18.90;12.80;;;19.60;85.60;;;;;;4917114;29;20062;-83
2021/09/07 08:30:06;;;;;;;19.00;12.75;;;19.60;85.10;;;;;;4916857;29;20143;-83
2021/09/07 08:32:32;;;;;;;19.10;11.23;;;19.70;84.70;;;;;;4915680;29;20094;-82
2021/09/07 08:34:57;;;;;;;21.50;11.68;;;19.80;84.20;;;;;;4917537;29;20618;-84
2021/09/07 08:37:23;;;;;;;14.50;9.93;;;19.90;83.00;;;;;;4917228;29;20098;-85
2021/09/07 08:39:48;;;;;;;18.42;10.88;;;20.00;83.20;;;;;;4916390;29;20056;-84
2021/09/07 08:42:14;;;;;;;15.10;10.90;;;20.00;82.50;;;;;;4918311;29;20048;-85
2021/09/07 08:44:47;;;;;;;15.88;11.68;;;20.20;83.20;;;;;;4918678;29;20079;-84
2021/09/07 08:47:17;;;;;;;;;;;20.20;82.80;;;;;;4918166;29;20055;-83
2021/09/07 08:49:45;;;;;;;19.17;11.38;;;20.20;82.50;;;;;;4918168;29;19923;-85
2021/09/07 08:52:14;;;;;;;18.10;12.10;;;20.30;81.60;;;;;;4918280;29;20078;-85
2021/09/07 08:54:40;;;;;;;19.13;12.05;;;20.40;80.30;;;;;;4918023;29;20051;-85
2021/09/07 08:57:05;;;;;;;17.23;11.38;;;20.50;79.40;;;;;;4918128;29;20054;-85
2021/09/07 08:59:33;;;;;;;20.55;11.75;;;20.60;79.60;;;;;;4917979;29;20134;-85
2021/09/07 09:02:14;;;;;;;17.52;11.05;;;20.70;80.00;;;;;;4917546;29;20084;-85
2021/09/07 09:04:47;;;;;;;18.70;11.25;;;20.80;79.30;;;;;;4918527;29;20052;-85
2021/09/07 09:07:23;;;;;;;15.82;11.32;;;20.90;77.20;;;;;;4917682;29;20459;-83
2021/09/07 09:09:50;;;;;;;18.85;12.20;;;21.00;77.80;;;;;;4917682;29;20040;-85
2021/09/07 09:12:35;;;;;;;14.90;10.48;;;21.10;78.00;;;;;;4918705;29;20554;-84
2021/09/07 09:15:08;;;;;;;20.38;12.27;;;21.20;79.30;;;;;;4916762;29;20051;-85
2021/09/07 09:17:34;;;;;;;19.63;11.75;;;21.30;77.50;;;;;;4918326;29;20048;-85
2021/09/07 09:20:02;;;;;;;14.68;10.75;;;21.30;77.00;;;;;;4916951;29;20506;-84
2021/09/07 09:22:44;;;;;;;15.23;11.00;;;21.40;78.00;;;;;;4898602;29;20063;-84
2021/09/07 09:25:25;;;;;;;17.38;10.55;;;21.50;78.80;;;;;;4899851;29;20404;-85
2021/09/07 09:27:50;;;;;;;17.70;11.68;;;21.60;78.80;;;;;;4913917;29;20463;-85
2021/09/07 09:30:23;;;;;;;15.15;10.63;;;21.70;77.30;;;;;;4933935;29;20039;-85
2021/09/07 09:32:49;;;;;;;;;;;21.70;76.70;;;;;;4937010;29;20058;-84
2021/09/07 09:35:15;;;;;;;12.18;9.20;;;21.80;77.10;;;;;;4936638;29;19926;-85
2021/09/07 09:37:57;;;;;;;15.75;10.80;;;21.90;78.50;;;;;;4918040;29;20107;-85
2021/09/07 09:40:23;;;;;;;16.20;11.33;;;22.00;76.40;;;;;;4918215;29;20051;-86
2021/09/07 09:42:49;;;;;;;16.33;11.02;;;22.10;74.60;;;;;;4917528;29;20047;-86
2021/09/07 09:45:16;;;;;;;15.00;9.30;;;22.20;75.30;;;;;;4918064;29;20135;-85
2021/09/07 09:47:43;;;;;;;17.02;10.25;;;22.30;77.70;;;;;;4921711;29;20054;-84
2021/09/07 09:50:13;;;;;;;16.00;10.23;;;22.40;76.70;;;;;;4921705;29;20054;-84
2021/09/07 09:52:41;;;;;;;20.15;12.35;;;22.40;77.00;;;;;;4922014;29;20051;-84
2021/09/07 09:55:09;;;;;;;14.32;10.07;;;22.50;75.40;;;;;;4922112;29;20384;-85
2021/09/07 09:57:36;;;;;;;16.58;11.60;;;22.60;76.80;;;;;;4919289;29;20055;-84
2021/09/07 10:00:04;;;;;;;16.55;11.52;;;22.60;75.40;;;;;;4921710;29;20050;-85
2021/09/07 10:02:31;;;;;;;13.80;9.68;;;22.80;74.80;;;;;;4920157;29;20087;-84
2021/09/07 10:04:58;;;;;;;15.38;10.10;;;22.80;76.10;;;;;;4937792;29;20090;-84
2021/09/07 10:07:25;;;;;;;15.82;10.38;;;22.90;77.10;;;;;;4919713;29;20040;-86
2021/09/07 10:09:51;;;;;;;14.88;10.45;;;23.00;76.80;;;;;;4921206;29;20098;-83
2021/09/07 10:12:40;;;;;;;15.20;10.90;;;23.00;76.60;;;;;;4937811;29;20122;-83
2021/09/07 10:15:29;;;;;;;20.17;12.13;;;23.10;75.80;;;;;;4921388;29;20040;-82
2021/09/07 10:18:46;;;;;;;19.25;12.32;;;23.20;73.00;;;;;;4918714;29;20054;-82
2021/09/07 10:23:55;;;;;;;16.65;10.57;;;23.30;74.50;;;;;;4935621;29;20051;-83
2021/09/07 10:26:39;;;;;;;12.40;9.60;;;23.40;73.80;;;;;;4940468;29;20559;-85
2021/09/07 10:29:09;;;;;;;13.02;9.80;;;23.50;76.10;;;;;;4938578;29;20055;-83
2021/09/07 10:31:47;;;;;;;12.07;9.35;;;23.50;76.90;;;;;;4919467;29;20039;-84
2021/09/07 10:34:14;;;;;;;17.30;10.25;;;23.60;77.80;;;;;;4938448;29;20051;-83
2021/09/07 10:37:04;;;;;;;14.75;10.77;;;23.70;76.90;;;;;;4911439;29;20102;-82
2021/09/07 10:39:41;;;;;;;17.30;11.15;;;23.80;74.40;;;;;;4919579;29;20055;-82
2021/09/07 10:42:08;;;;;;;12.50;9.32;;;23.80;74.40;;;;;;4898853;29;20134;-82
2021/09/07 10:44:56;;;;;;;15.73;11.15;;;23.90;76.70;;;;;;4904739;29;20051;-83
2021/09/07 10:47:21;;;;;;;14.80;10.93;;;24.00;73.80;;;;;;4918189;29;20056;-82
2021/09/07 10:49:53;;;;;;;15.18;9.82;;;24.00;72.20;;;;;;4911908;29;20062;-82
2021/09/07 10:52:31;;;;;;;16.98;11.00;;;24.10;75.20;;;;;;4920545;29;20601;-82
2021/09/07 10:55:06;;;;;;;15.70;11.55;;;24.10;72.60;;;;;;4920120;29;20499;-82
2021/09/07 10:57:34;;;;;;;17.25;10.35;;;24.20;69.10;;;;;;4919750;29;20067;-83
2021/09/07 11:00:13;;;;;;;13.88;10.25;;;24.20;71.30;;;;;;4936402;29;20044;-83
2021/09/07 11:03:06;;;;;;;15.15;10.68;;;24.30;71.10;;;;;;4919029;29;20087;-82
2021/09/07 11:05:37;;;;;;;15.38;11.27;;;24.30;71.50;;;;;;4934199;29;20063;-82
2021/09/07 11:08:05;;;;;;;20.58;11.35;;;24.40;69.90;;;;;;4920009;29;20131;-83
2021/09/07 11:10:33;;;;;;;16.42;11.38;;;24.50;70.80;;;;;;4936776;29;20043;-83
2021/09/07 11:13:03;;;;;;;18.45;11.95;;;24.50;71.20;;;;;;4927322;29;20047;-83
2021/09/07 11:15:40;;;;;;;14.48;9.93;;;24.50;69.30;;;;;;4905398;29;20072;-82
2021/09/07 11:18:14;;;;;;;16.00;11.57;;;24.60;73.10;;;;;;4904426;29;20509;-82
2021/09/07 11:20:46;;;;;;;13.35;10.27;;;24.70;70.90;;;;;;4908230;29;20063;-83
2021/09/07 11:23:18;;;;;;;14.68;10.88;;;24.70;71.80;;;;;;4917933;29;20043;-83
2021/09/07 11:25:51;;;;;;;;;;;24.80;70.50;;;;;;4904424;29;20048;-82
2021/09/07 11:28:17;;;;;;;17.73;11.70;;;24.70;69.00;;;;;;4900638;29;20290;-83
2021/09/07 11:30:51;;;;;;;14.73;10.77;;;24.80;69.00;;;;;;4907474;29;20039;-83
2021/09/07 11:33:19;;;;;;;12.95;9.80;;;24.90;71.60;;;;;;4920330;29;20055;-84
2021/09/07 11:35:51;;;;;;;12.57;9.68;;;25.00;73.60;;;;;;4917523;29;20131;-83
2021/09/07 11:38:20;;;;;;;15.90;10.30;;;25.10;73.00;;;;;;4917901;29;20046;-82
2021/09/07 11:40:54;;;;;;;14.80;9.90;;;25.10;71.80;;;;;;4935926;29;20047;-84
2021/09/07 11:43:47;;;;;;;16.85;11.25;;;25.20;74.00;;;;;;4919189;29;20051;-84
2021/09/07 11:46:30;;;;;;;11.07;8.50;;;25.30;73.10;;;;;;4934073;29;20063;-84
2021/09/07 11:49:08;;;;;;;13.98;9.40;;;25.40;75.60;;;;;;4917785;29;20040;-84
2021/09/07 11:51:36;;;;;;;16.00;11.32;;;25.50;75.90;;;;;;4915957;29;20143;-85
2021/09/07 11:54:04;;;;;;;14.02;10.50;;;25.60;71.20;;;;;;4932155;29;20083;-84
2021/09/07 11:56:32;;;;;;;13.98;10.65;;;25.60;71.40;;;;;;4932220;29;20044;-84
2021/09/07 11:59:16;;;;;;;14.75;11.32;;;25.60;72.50;;;;;;4915994;29;20044;-84
2021/09/07 12:01:53;;;;;;;13.20;10.05;;;25.70;70.80;;;;;;4913089;29;20067;-84
2021/09/07 12:04:23;;;;;;;15.30;11.85;;;25.70;74.20;;;;;;4914178;29;20090;-86
2021/09/07 12:06:53;;;;;;;18.40;12.30;;;25.80;71.10;;;;;;4912140;29;20055;-85
2021/09/07 12:09:22;;;;;;;20.13;12.60;;;25.80;67.00;;;;;;4912198;29;20053;-84
2021/09/07 12:12:04;;;;;;;12.38;9.98;;;25.80;65.40;;;;;;4911962;29;20400;-86
2021/09/07 12:14:46;;;;;;;15.82;10.43;;;25.90;71.80;;;;;;4901011;29;20160;-86
2021/09/07 12:17:16;;;;;;;14.63;11.30;;;25.90;72.60;;;;;;4905497;29;20087;-85
2021/09/07 12:19:52;;;;;;;15.00;11.57;;;26.00;71.40;;;;;;4904939;29;20079;-85
2021/09/07 12:22:26;;;;;;;16.48;12.30;;;26.10;67.00;;;;;;4895504;29;20047;-86
2021/09/07 12:25:00;;;;;;;14.35;11.23;;;26.10;66.20;;;;;;4924362;29;20044;-86
2021/09/07 12:27:29;;;;;;;15.00;11.85;;;26.10;67.60;;;;;;4902704;29;20504;-84
2021/09/07 12:30:19;;;;;;;11.82;9.77;;;26.10;67.20;;;;;;4908695;29;20064;-86
2021/09/07 12:32:59;;;;;;;13.73;9.35;;;26.20;73.20;;;;;;4901719;29;20183;-85
2021/09/07 12:35:51;;;;;;;13.68;10.20;;;26.30;74.90;;;;;;4923091;29;20079;-84
2021/09/07 12:38:23;;;;;;;14.85;10.20;;;26.40;74.90;;;;;;4896635;29;20058;-85
2021/09/07 12:40:55;;;;;;;12.75;9.75;;;26.50;74.70;;;;;;4904604;29;20052;-85